createdAt,value
2018-11-10T00:02:24.629Z,14.90
2018-11-10T00:05:05.381Z,14.50
2018-11-10T00:07:39.396Z,15.00
2018-11-10T00:10:15.957Z,14.90
2018-11-10T00:12:49.741Z,15.33
2018-11-10T00:15:24.576Z,15.03
2018-11-10T00:18:13.381Z,15.70
2018-11-10T00:20:51.465Z,16.30
2018-11-10T00:23:25.546Z,15.00
2018-11-10T00:26:04.690Z,15.30
2018-11-10T00:28:41.382Z,14.93
2018-11-10T00:31:14.324Z,15.33
2018-11-10T00:33:47.888Z,17.47
2018-11-10T00:36:21.541Z,15.13
2018-11-10T00:38:57.602Z,16.23
2018-11-10T00:41:34.206Z,16.00
2018-11-10T00:44:09.653Z,16.07
2018-11-10T00:46:46.121Z,15.40
2018-11-10T00:49:26.073Z,15.57
2018-11-10T00:51:59.974Z,16.00
2018-11-10T00:54:33.525Z,14.60
2018-11-10T00:57:07.626Z,14.50
2018-11-10T00:59:42.163Z,14.13
2018-11-10T01:02:15.063Z,15.02
2018-11-10T01:04:51.136Z,13.50
2018-11-10T01:07:25.084Z,13.13
2018-11-10T01:09:58.434Z,13.67
2018-11-10T01:12:32.665Z,12.93
2018-11-10T01:15:13.440Z,13.83
2018-11-10T01:17:48.074Z,14.27
2018-11-10T01:20:26.597Z,13.07
2018-11-10T01:23:01.893Z,13.27
2018-11-10T01:25:38.218Z,13.60
2018-11-10T01:28:11.858Z,14.10
2018-11-10T01:30:45.783Z,13.20
2018-11-10T01:33:21.438Z,13.60
2018-11-10T01:35:56.318Z,13.07
2018-11-10T01:38:30.582Z,13.50
2018-11-10T01:41:04.794Z,13.40
2018-11-10T01:43:37.574Z,13.48
2018-11-10T01:46:10.125Z,12.40
2018-11-10T01:48:46.421Z,12.97
2018-11-10T01:51:18.997Z,12.13
2018-11-10T01:53:52.343Z,12.87
2018-11-10T01:56:26.907Z,12.63
2018-11-10T01:58:59.923Z,13.10
2018-11-10T02:01:32.547Z,11.67
2018-11-10T02:04:11.674Z,13.03
2018-11-10T02:06:45.861Z,12.23
2018-11-10T02:09:18.531Z,11.93
2018-11-10T02:11:53.094Z,11.90
2018-11-10T02:14:27.065Z,12.75
2018-11-10T02:17:02.106Z,11.70
2018-11-10T02:19:36.038Z,12.00
2018-11-10T02:22:08.541Z,12.67
2018-11-10T02:24:42.387Z,11.30
2018-11-10T02:27:20.763Z,10.47
2018-11-10T02:29:54.992Z,10.50
2018-11-10T02:32:31.318Z,10.30
2018-11-10T02:35:04.923Z,9.67
2018-11-10T02:37:38.249Z,10.20
2018-11-10T02:40:14.427Z,9.67
2018-11-10T02:42:49.269Z,9.87
2018-11-10T02:45:21.834Z,9.30
2018-11-10T02:47:59.635Z,10.05
2018-11-10T02:50:32.505Z,9.97
2018-11-10T02:53:05.313Z,9.17
2018-11-10T02:55:42.281Z,8.10
2018-11-10T02:58:17.221Z,8.65
2018-11-10T03:00:50.418Z,8.50
2018-11-10T03:03:23.713Z,8.60
2018-11-10T03:05:56.974Z,7.20
2018-11-10T03:08:29.565Z,7.70
2018-11-10T03:11:02.472Z,7.87
2018-11-10T03:13:36.986Z,7.90
2018-11-10T03:16:09.908Z,6.43
2018-11-10T03:18:42.978Z,6.53
2018-11-10T03:21:17.281Z,6.10
2018-11-10T03:23:50.671Z,6.23
2018-11-10T03:26:25.786Z,6.47
2018-11-10T03:28:58.670Z,6.23
2018-11-10T03:31:34.278Z,5.90
2018-11-10T03:34:08.225Z,5.50
2018-11-10T03:36:42.198Z,5.30
2018-11-10T03:39:14.846Z,5.13
2018-11-10T03:41:48.929Z,5.30
2018-11-10T03:44:23.003Z,5.00
2018-11-10T03:46:57.013Z,4.20
2018-11-10T03:49:31.293Z,4.63
2018-11-10T03:52:04.707Z,3.97
2018-11-10T03:54:37.237Z,4.43
2018-11-10T03:57:10.133Z,4.27
2018-11-10T03:59:45.747Z,4.50
2018-11-10T04:02:19.053Z,4.27
2018-11-10T04:04:55.409Z,4.23
2018-11-10T04:07:29.062Z,3.90
2018-11-10T04:10:01.716Z,4.03
2018-11-10T04:12:34.838Z,4.00
2018-11-10T04:15:07.558Z,4.03
2018-11-10T04:17:41.305Z,3.70
2018-11-10T04:20:15.359Z,4.23
2018-11-10T04:22:48.047Z,3.50
2018-11-10T04:25:20.737Z,4.13
2018-11-10T04:27:53.811Z,4.03
2018-11-10T04:30:26.424Z,3.40
2018-11-10T04:32:58.969Z,4.20
2018-11-10T04:35:31.782Z,3.33
2018-11-10T04:38:04.640Z,3.90
2018-11-10T04:40:37.110Z,4.23
2018-11-10T04:43:10.150Z,4.17
2018-11-10T04:45:43.133Z,3.60
2018-11-10T04:48:15.706Z,4.03
2018-11-10T04:50:49.047Z,3.80
2018-11-10T04:53:22.173Z,4.20
2018-11-10T04:55:55.911Z,3.60
2018-11-10T04:58:29.454Z,3.23
2018-11-10T05:01:02.974Z,4.10
2018-11-10T05:03:35.645Z,4.23
2018-11-10T05:06:08.650Z,4.07
2018-11-10T05:08:41.468Z,4.43
2018-11-10T05:11:14.517Z,4.40
2018-11-10T05:13:51.186Z,4.50
2018-11-10T05:16:25.142Z,4.00
2018-11-10T05:19:01.945Z,4.17
2018-11-10T05:21:38.800Z,5.00
2018-11-10T05:24:12.418Z,4.33
2018-11-10T05:26:45.285Z,4.03
2018-11-10T05:29:20.453Z,4.73
2018-11-10T05:31:54.849Z,5.13
2018-11-10T05:34:27.684Z,5.28
2018-11-10T05:37:03.574Z,5.43
2018-11-10T05:39:43.460Z,5.20
2018-11-10T05:42:16.093Z,4.57
2018-11-10T05:44:49.464Z,5.73
2018-11-10T05:47:22.021Z,5.70
2018-11-10T05:49:57.411Z,5.93
2018-11-10T05:52:31.327Z,5.80
2018-11-10T05:55:04.113Z,6.30
2018-11-10T05:57:42.076Z,6.40
2018-11-10T06:00:21.382Z,6.57
2018-11-10T06:02:53.926Z,6.90
2018-11-10T06:05:28.860Z,7.87
2018-11-10T06:08:02.335Z,6.87
2018-11-10T06:10:35.114Z,6.40
2018-11-10T06:13:09.118Z,7.10
2018-11-10T06:15:42.475Z,6.80
2018-11-10T06:18:15.110Z,6.90
2018-11-10T06:20:51.089Z,6.63
2018-11-10T06:23:23.756Z,6.43
2018-11-10T06:25:56.385Z,7.03
2018-11-10T06:28:29.363Z,7.13
2018-11-10T06:31:02.731Z,6.30
2018-11-10T06:33:35.555Z,6.63
2018-11-10T06:36:12.797Z,6.37
2018-11-10T06:38:45.540Z,6.60
2018-11-10T06:41:24.078Z,6.57
2018-11-10T06:43:58.902Z,5.53
2018-11-10T06:46:34.315Z,6.53
2018-11-10T06:49:07.919Z,5.67
2018-11-10T06:51:48.802Z,6.50
2018-11-10T06:54:22.757Z,7.00
2018-11-10T06:56:58.465Z,6.87
2018-11-10T06:59:32.587Z,7.37
2018-11-10T07:02:08.017Z,7.07
2018-11-10T07:04:42.893Z,7.00
2018-11-10T07:07:21.370Z,8.35
2018-11-10T07:09:54.092Z,8.10
2018-11-10T07:12:29.135Z,8.53
2018-11-10T07:15:04.352Z,8.73
2018-11-10T07:17:38.842Z,8.53
2018-11-10T07:20:11.600Z,9.00
2018-11-10T07:22:45.934Z,8.77
2018-11-10T07:25:18.583Z,9.27
2018-11-10T07:27:55.941Z,9.57
2018-11-10T07:30:29.270Z,8.93
2018-11-10T07:33:02.235Z,9.13
2018-11-10T07:35:37.427Z,8.87
2018-11-10T07:38:12.299Z,9.03
2018-11-10T07:40:52.216Z,9.93
2018-11-10T07:43:24.895Z,9.63
2018-11-10T07:46:01.242Z,8.47
2018-11-10T07:48:34.768Z,7.83
2018-11-10T07:51:08.626Z,8.93
2018-11-10T07:53:43.269Z,9.60
2018-11-10T07:56:19.295Z,8.50
2018-11-10T07:58:54.281Z,8.23
2018-11-10T08:01:44.608Z,8.10
2018-11-10T08:04:19.235Z,7.73
2018-11-10T08:06:53.326Z,7.20
2018-11-10T08:09:27.706Z,7.20
2018-11-10T08:12:02.568Z,7.60
2018-11-10T08:14:40.169Z,7.63
2018-11-10T08:17:17.163Z,7.10
2018-11-10T08:19:52.651Z,7.28
2018-11-10T08:22:31.705Z,6.73
2018-11-10T08:25:12.913Z,7.00
2018-11-10T08:27:46.669Z,6.30
2018-11-10T08:30:26.140Z,6.60
2018-11-10T08:33:01.164Z,6.73
2018-11-10T08:35:36.543Z,6.97
2018-11-10T08:38:13.098Z,7.60
2018-11-10T08:40:47.324Z,6.60
2018-11-10T08:43:20.999Z,6.50
2018-11-10T08:46:01.541Z,6.90
2018-11-10T08:48:38.556Z,6.53
2018-11-10T08:51:26.786Z,7.00
2018-11-10T08:54:02.450Z,7.20
2018-11-10T08:56:36.370Z,6.63
2018-11-10T08:59:11.311Z,6.07
2018-11-10T09:01:44.504Z,6.20
2018-11-10T09:04:18.362Z,5.80
2018-11-10T09:06:53.816Z,5.97
2018-11-10T09:09:32.897Z,5.60
2018-11-10T09:12:10.183Z,6.03
2018-11-10T09:14:44.454Z,5.90
2018-11-10T09:17:20.636Z,5.23
2018-11-10T09:19:57.485Z,5.13
2018-11-10T09:22:30.925Z,5.60
2018-11-10T09:25:08.425Z,5.40
2018-11-10T09:27:42.731Z,5.23
2018-11-10T09:30:19.423Z,4.90
2018-11-10T09:33:14.616Z,5.33
2018-11-10T09:35:51.235Z,5.47
2018-11-10T09:38:34.437Z,5.50
2018-11-10T09:41:12.895Z,5.30
2018-11-10T09:43:49.299Z,5.50
2018-11-10T09:46:25.801Z,5.17
2018-11-10T09:49:05.769Z,5.78
2018-11-10T09:51:42.623Z,5.27
2018-11-10T09:54:19.689Z,4.53
2018-11-10T09:56:54.551Z,5.30
2018-11-10T09:59:29.723Z,4.97
2018-11-10T10:02:06.483Z,4.47
2018-11-10T10:04:40.214Z,4.70
2018-11-10T10:07:22.232Z,4.43
2018-11-10T10:10:07.300Z,4.30
2018-11-10T10:12:44.272Z,4.33
2018-11-10T10:15:19.241Z,4.50
2018-11-10T10:17:53.447Z,5.03
2018-11-10T10:20:27.527Z,5.10
2018-11-10T10:23:03.478Z,4.50
2018-11-10T10:25:43.443Z,5.43
2018-11-10T10:28:21.764Z,5.17
2018-11-10T10:31:15.092Z,5.63
2018-11-10T10:33:52.520Z,6.03
2018-11-10T10:36:31.174Z,5.20
2018-11-10T10:39:12.343Z,5.47
2018-11-10T10:41:51.749Z,6.20
2018-11-10T10:44:26.580Z,6.10
2018-11-10T10:47:06.683Z,5.70
2018-11-10T10:49:43.862Z,5.80
2018-11-10T10:52:24.569Z,6.47
2018-11-10T10:55:10.481Z,6.47
2018-11-10T10:57:45.137Z,6.87
2018-11-10T11:00:26.452Z,6.40
2018-11-10T11:03:12.665Z,7.45
2018-11-10T11:05:57.526Z,6.53
2018-11-10T11:08:37.303Z,6.20
2018-11-10T11:11:11.659Z,6.43
2018-11-10T11:13:49.701Z,6.37
2018-11-10T11:16:23.452Z,6.97
2018-11-10T11:18:57.737Z,6.60
2018-11-10T11:21:32.953Z,6.80
2018-11-10T11:24:07.463Z,6.70
2018-11-10T11:26:41.947Z,6.70
2018-11-10T11:29:20.691Z,6.15
2018-11-10T11:31:54.410Z,6.27
2018-11-10T11:34:33.544Z,6.13
2018-11-10T11:37:10.626Z,6.47
2018-11-10T11:39:51.842Z,6.60
2018-11-10T11:42:27.190Z,6.47
2018-11-10T11:45:08.247Z,6.90
2018-11-10T11:47:48.076Z,6.70
2018-11-10T11:50:24.284Z,7.27
2018-11-10T11:52:59.334Z,7.17
2018-11-10T11:55:34.022Z,7.77
2018-11-10T11:58:08.911Z,8.07
2018-11-10T12:00:42.635Z,8.73
2018-11-10T12:03:19.518Z,8.73
2018-11-10T12:05:54.074Z,7.97
2018-11-10T12:08:27.582Z,7.90
2018-11-10T12:11:02.128Z,8.10
2018-11-10T12:13:42.861Z,8.10
2018-11-10T12:16:27.181Z,8.47
2018-11-10T12:18:57.411Z,8.93
2018-11-10T12:21:36.611Z,7.90
2018-11-10T12:24:19.679Z,7.50
2018-11-10T12:27:01.156Z,8.40
2018-11-10T12:29:56.415Z,9.27
2018-11-10T12:32:36.249Z,8.30
2018-11-10T12:35:14.553Z,9.00
2018-11-10T12:37:50.679Z,8.90
2018-11-10T12:40:31.747Z,8.50
2018-11-10T12:43:06.882Z,9.23
2018-11-10T12:45:50.871Z,9.47
2018-11-10T12:48:33.021Z,8.73
2018-11-10T12:51:09.140Z,8.60
2018-11-10T12:53:45.475Z,9.40
2018-11-10T12:56:21.788Z,9.05
2018-11-10T12:59:04.843Z,7.97
2018-11-10T13:01:42.589Z,7.75
2018-11-10T13:04:17.071Z,6.57
2018-11-10T13:06:52.988Z,7.00
2018-11-10T13:09:29.078Z,6.80
2018-11-10T13:12:07.901Z,6.60
2018-11-10T13:14:44.052Z,6.33
2018-11-10T13:17:18.139Z,6.37
2018-11-10T13:19:57.529Z,6.80
2018-11-10T13:22:37.788Z,6.47
2018-11-10T13:25:19.698Z,6.23
2018-11-10T13:27:56.191Z,6.20
2018-11-10T13:30:32.031Z,6.03
2018-11-10T13:33:08.175Z,6.30
2018-11-10T13:35:49.554Z,5.97
2018-11-10T13:38:24.720Z,6.43
2018-11-10T13:41:02.591Z,5.73
2018-11-10T13:43:38.044Z,5.90
2018-11-10T13:46:29.138Z,6.20
2018-11-10T13:49:06.568Z,5.00
2018-11-10T13:51:43.738Z,5.53
2018-11-10T13:54:23.320Z,5.50
2018-11-10T13:57:03.706Z,5.30
2018-11-10T13:59:40.790Z,5.33
2018-11-10T14:02:18.715Z,5.67
2018-11-10T14:04:59.262Z,5.73
2018-11-10T14:07:34.675Z,5.40
2018-11-10T14:10:15.086Z,5.33
2018-11-10T14:12:57.669Z,7.10
2018-11-10T14:15:41.487Z,4.95
2018-11-10T14:18:19.673Z,5.90
2018-11-10T14:20:58.299Z,4.63
2018-11-10T14:23:32.438Z,4.95
2018-11-10T14:26:05.952Z,4.83
2018-11-10T14:28:39.583Z,5.07
2018-11-10T14:31:14.520Z,4.83
2018-11-10T14:34:00.909Z,4.90
2018-11-10T14:36:36.029Z,4.80
2018-11-10T14:39:14.477Z,4.27
2018-11-10T14:41:55.413Z,4.27
2018-11-10T14:44:30.975Z,4.77
2018-11-10T14:47:09.641Z,4.90
2018-11-10T14:49:52.644Z,4.40
2018-11-10T14:52:28.012Z,4.00
2018-11-10T14:55:11.056Z,4.60
2018-11-10T14:57:55.828Z,4.63
2018-11-10T15:00:33.125Z,4.77
2018-11-10T15:03:13.342Z,4.57
2018-11-10T15:05:51.952Z,4.50
2018-11-10T15:08:33.783Z,4.50
2018-11-10T15:11:25.346Z,4.83
2018-11-10T15:14:34.538Z,5.17
2018-11-10T15:17:21.541Z,5.13
2018-11-10T15:23:12.572Z,4.83
2018-11-10T15:26:33.420Z,4.40
2018-11-10T15:29:41.278Z,4.10
2018-11-10T15:32:18.863Z,3.65
2018-11-10T15:34:56.685Z,3.73
2018-11-10T15:37:34.824Z,3.80
2018-11-10T15:40:14.865Z,3.35
2018-11-10T15:42:59.278Z,3.23
2018-11-10T15:45:39.000Z,3.30
2018-11-10T15:48:28.146Z,2.90
2018-11-10T15:51:06.414Z,2.97
2018-11-10T15:53:40.985Z,2.97
2018-11-10T15:56:18.861Z,3.03
2018-11-10T15:58:58.435Z,2.60
2018-11-10T16:01:39.842Z,2.67
2018-11-10T16:04:30.076Z,3.00
2018-11-10T16:07:11.218Z,3.27
2018-11-10T16:09:48.542Z,2.78
2018-11-10T16:12:30.174Z,2.57
2018-11-10T16:15:15.507Z,2.92
2018-11-10T16:17:49.855Z,2.12
2018-11-10T16:20:24.767Z,1.87
2018-11-10T16:22:59.806Z,1.90
2018-11-10T16:25:38.417Z,1.87
2018-11-10T16:28:16.549Z,2.60
2018-11-10T16:30:52.885Z,2.10
2018-11-10T16:33:37.294Z,2.37
2018-11-10T16:36:14.566Z,2.17
2018-11-10T16:38:53.298Z,2.00
2018-11-10T16:41:42.621Z,2.00
2018-11-10T16:44:17.202Z,2.03
2018-11-10T16:46:57.589Z,2.23
2018-11-10T16:49:31.058Z,2.20
2018-11-10T16:52:09.728Z,2.10
2018-11-10T16:54:51.912Z,2.30
2018-11-10T16:57:27.155Z,1.93
2018-11-10T17:00:06.338Z,2.17
2018-11-10T17:02:55.570Z,1.87
2018-11-10T17:05:33.608Z,1.90
2018-11-10T17:08:14.557Z,1.73
2018-11-10T17:11:40.576Z,1.80
2018-11-10T17:14:23.631Z,1.70
2018-11-10T17:16:58.279Z,1.60
2018-11-10T17:20:04.099Z,2.20
2018-11-10T17:22:44.062Z,1.70
2018-11-10T17:25:28.425Z,1.53
2018-11-10T17:28:05.706Z,1.70
2018-11-10T17:31:00.270Z,1.50
2018-11-10T17:33:36.915Z,1.70
2018-11-10T17:36:18.606Z,1.60
2018-11-10T17:38:57.401Z,1.50
2018-11-10T17:41:35.512Z,1.27
2018-11-10T17:44:17.976Z,1.63
2018-11-10T17:46:56.525Z,1.73
2018-11-10T17:49:31.243Z,1.30
2018-11-10T17:52:08.215Z,1.37
2018-11-10T17:54:43.374Z,1.50
2018-11-10T17:57:21.748Z,1.42
2018-11-10T17:59:57.740Z,1.40
2018-11-10T18:02:34.942Z,1.60
2018-11-10T18:05:16.682Z,2.00
2018-11-10T18:07:52.845Z,1.63
2018-11-10T18:10:31.451Z,1.77
2018-11-10T18:13:08.251Z,1.70
2018-11-10T18:15:50.389Z,1.63
2018-11-10T18:18:31.160Z,1.73
2018-11-10T18:21:14.900Z,1.73
2018-11-10T18:24:14.604Z,1.67
2018-11-10T18:26:49.619Z,1.93
2018-11-10T18:29:26.528Z,1.80
2018-11-10T18:32:08.205Z,1.90
2018-11-10T18:34:48.588Z,2.10
2018-11-10T18:37:35.712Z,2.20
2018-11-10T18:40:30.753Z,2.30
2018-11-10T18:43:12.746Z,2.33
2018-11-10T18:45:52.086Z,2.13
2018-11-10T18:48:41.308Z,2.40
2018-11-10T18:51:17.429Z,2.27
2018-11-10T18:54:10.284Z,2.17
2018-11-10T18:56:55.874Z,2.50
2018-11-10T18:59:38.754Z,2.80
2018-11-10T19:02:27.834Z,2.87
2018-11-10T19:05:04.074Z,3.10
2018-11-10T19:10:56.419Z,3.10
2018-11-10T19:13:59.704Z,3.23
2018-11-10T19:17:01.693Z,3.30
2018-11-10T19:19:48.589Z,3.87
2018-11-10T19:22:28.140Z,4.00
2018-11-10T19:25:09.164Z,4.07
2018-11-10T19:27:46.066Z,4.60
2018-11-10T19:30:20.865Z,4.20
2018-11-10T19:32:58.432Z,4.32
2018-11-10T19:35:39.643Z,5.10
2018-11-10T19:38:13.205Z,4.50
2018-11-10T19:40:49.532Z,4.47
2018-11-10T19:43:32.360Z,5.40
2018-11-10T19:46:11.431Z,5.97
2018-11-10T19:48:44.774Z,5.60
2018-11-10T19:51:26.848Z,5.20
2018-11-10T19:54:05.366Z,6.10
2018-11-10T19:56:44.335Z,6.40
2018-11-10T19:59:33.362Z,7.10
2018-11-10T20:02:17.403Z,6.73
2018-11-10T20:04:57.430Z,7.10
2018-11-10T20:07:38.006Z,7.27
2018-11-10T20:10:27.709Z,7.00
2018-11-10T20:13:06.258Z,6.83
2018-11-10T20:15:47.875Z,7.20
2018-11-10T20:18:25.890Z,7.93
2018-11-10T20:21:03.523Z,7.00
2018-11-10T20:23:42.485Z,7.87
2018-11-10T20:26:19.115Z,7.97
2018-11-10T20:29:23.185Z,8.00
2018-11-10T20:32:04.313Z,7.77
2018-11-10T20:34:40.309Z,7.70
2018-11-10T20:37:15.820Z,9.10
2018-11-10T20:39:59.178Z,7.90
2018-11-10T20:42:35.671Z,8.80
2018-11-10T20:45:16.685Z,8.63
2018-11-10T20:47:54.431Z,8.87
2018-11-10T20:50:39.219Z,9.07
2018-11-10T20:53:34.568Z,8.80
2018-11-10T20:56:18.670Z,9.23
2018-11-10T20:58:58.820Z,9.20
2018-11-10T21:01:32.449Z,8.97
2018-11-10T21:04:09.063Z,8.27
2018-11-10T21:06:48.818Z,8.60
2018-11-10T21:09:32.221Z,8.63
2018-11-10T21:12:08.698Z,8.50
2018-11-10T21:14:55.913Z,7.57
2018-11-10T21:17:40.505Z,8.57
2018-11-10T21:20:26.858Z,8.57
2018-11-10T21:23:04.676Z,8.73
2018-11-10T21:25:40.212Z,8.87
2018-11-10T21:28:21.868Z,9.07
2018-11-10T21:30:59.655Z,8.75
2018-11-10T21:33:45.617Z,8.13
2018-11-10T21:36:26.582Z,8.40
2018-11-10T21:39:05.773Z,8.87
2018-11-10T21:41:43.345Z,7.43
2018-11-10T21:44:30.764Z,8.00
2018-11-10T21:47:26.998Z,6.80
2018-11-10T21:50:01.344Z,6.15
2018-11-10T21:52:48.701Z,5.87
2018-11-10T21:55:37.571Z,5.30
2018-11-10T21:58:22.748Z,5.40
2018-11-10T22:01:00.949Z,4.30
2018-11-10T22:03:41.518Z,4.40
2018-11-10T22:06:21.934Z,4.68
2018-11-10T22:08:59.979Z,4.17
2018-11-10T22:11:43.351Z,4.70
2018-11-10T22:14:21.244Z,4.50
2018-11-10T22:17:05.549Z,3.80
2018-11-10T22:19:46.666Z,3.30
2018-11-10T22:22:21.261Z,3.80
2018-11-10T22:25:00.476Z,3.00
2018-11-10T22:27:37.005Z,3.27
2018-11-10T22:30:21.013Z,3.20
2018-11-10T22:32:58.882Z,3.50
2018-11-10T22:35:33.289Z,3.50
2018-11-10T22:38:33.361Z,3.47
2018-11-10T22:41:07.627Z,3.70
2018-11-10T22:43:48.559Z,4.23
2018-11-10T22:46:27.998Z,3.60
2018-11-10T22:49:11.599Z,3.30
2018-11-10T22:51:46.589Z,3.23
2018-11-10T22:54:28.438Z,3.40
2018-11-10T22:57:02.940Z,3.20
2018-11-10T22:59:37.478Z,3.13
2018-11-10T23:02:13.642Z,3.00
2018-11-10T23:04:54.549Z,3.40
2018-11-10T23:07:29.925Z,2.97
2018-11-10T23:10:05.746Z,2.90
2018-11-10T23:12:44.439Z,2.80
2018-11-10T23:15:18.228Z,2.77
2018-11-10T23:17:54.781Z,2.57
2018-11-10T23:20:34.099Z,2.33
2018-11-10T23:23:16.602Z,2.42
2018-11-10T23:25:51.217Z,2.10
2018-11-10T23:28:28.354Z,2.33
2018-11-10T23:31:08.395Z,2.03
2018-11-10T23:33:47.904Z,2.07
2018-11-10T23:36:25.757Z,1.57
2018-11-10T23:39:00.238Z,1.70
2018-11-10T23:41:39.411Z,1.57
2018-11-10T23:44:16.383Z,1.93
2018-11-10T23:46:52.475Z,1.53
2018-11-10T23:49:26.188Z,1.77
2018-11-10T23:51:59.033Z,1.50
2018-11-10T23:54:32.395Z,1.57
2018-11-10T23:57:09.295Z,1.63
2018-11-10T23:59:42.504Z,1.40
